Time;durP1;ratioP1;P1;durP2;ratioP2;P2;SDS_P1;SDS_P2;PMS_P1;PMS_P2;Temp;Humidity;BMP_temperature;BMP_pressure;BME280_temperature;BME280_humidity;BME280_pressure;Samples;Min_cycle;Max_cycle;Signal;HPM_P1;HPM_P2
2022/04/23 00:01:44;;;;;;;16.45;8.65;;;;;;;;;;5032227;28;20046;-75
2022/04/23 00:04:11;;;;;;;15.80;5.80;;;;;;;;;;5031563;28;20374;-74
2022/04/23 00:06:37;;;;;;;16.35;4.95;;;;;;;;;;5030349;28;20397;-75
2022/04/23 00:09:03;;;;;;;10.00;4.72;;;;;;;;;;5008605;28;20030;-76
2022/04/23 00:11:30;;;;;;;7.45;4.07;;;;;;;;;;5022479;28;20381;-76
2022/04/23 00:13:56;;;;;;;10.90;5.35;;;;;;;;;;5030332;28;20105;-75
2022/04/23 00:16:25;;;;;;;9.13;4.10;;;;;;;;;;5006372;28;20045;-76
2022/04/23 00:18:51;;;;;;;10.15;4.63;;;;;;;;;;5011976;28;20164;-77
2022/04/23 00:21:20;;;;;;;7.30;4.45;;;;;;;;;;5010161;28;20037;-79
2022/04/23 00:23:50;;;;;;;10.02;4.95;;;;;;;;;;5031538;28;20544;-76
2022/04/23 00:26:16;;;;;;;8.90;4.90;;;;;;;;;;5003221;28;20054;-77
2022/04/23 00:28:42;;;;;;;10.68;5.10;;;;;;;;;;4999546;28;20121;-75
2022/04/23 00:31:08;;;;;;;12.05;5.68;;;;;;;;;;5021201;28;20048;-77
2022/04/23 00:33:38;;;;;;;12.60;5.53;;;;;;;;;;5027361;28;20033;-75
2022/04/23 00:36:10;;;;;;;11.25;5.63;;;;;;;;;;5025933;28;20112;-75
2022/04/23 00:38:40;;;;;;;11.88;5.75;;;;;;;;;;5026330;28;20033;-76
2022/04/23 00:41:06;;;;;;;12.60;6.50;;;;;;;;;;5029591;28;20069;-75
2022/04/23 00:43:36;;;;;;;13.07;6.13;;;;;;;;;;5030598;28;20041;-76
2022/04/23 00:46:02;;;;;;;14.98;6.78;;;;;;;;;;5031618;28;20448;-76
2022/04/23 00:48:29;;;;;;;11.45;6.57;;;;;;;;;;5030872;28;20033;-76
2022/04/23 00:50:57;;;;;;;9.07;6.30;;;;;;;;;;5029249;28;20026;-76
2022/04/23 00:53:24;;;;;;;16.20;6.25;;;;;;;;;;5030044;28;20401;-75
2022/04/23 00:55:52;;;;;;;10.30;7.15;;;;;;;;;;5029477;28;20041;-77
2022/04/23 00:58:18;;;;;;;14.07;7.72;;;;;;;;;;5032310;28;20033;-77
2022/04/23 01:00:45;;;;;;;11.02;7.30;;;;;;;;;;5031668;28;20035;-76
2022/04/23 01:03:12;;;;;;;10.80;6.82;;;;;;;;;;5031784;28;20392;-77
2022/04/23 01:05:42;;;;;;;9.90;6.80;;;;;;;;;;5034217;28;20045;-76
2022/04/23 01:08:08;;;;;;;12.90;7.47;;;;;;;;;;5032748;28;20033;-76
2022/04/23 01:10:35;;;;;;;10.70;6.93;;;;;;;;;;5016875;28;20030;-76
2022/04/23 01:13:01;;;;;;;11.80;7.75;;;;;;;;;;5031199;28;20036;-76
2022/04/23 01:15:27;;;;;;;13.13;8.20;;;;;;;;;;5017164;28;20076;-76
2022/04/23 01:17:53;;;;;;;11.75;7.13;;;;;;;;;;5033192;28;20033;-76
2022/04/23 01:20:19;;;;;;;15.10;7.05;;;;;;;;;;5032567;28;20034;-77
2022/04/23 01:22:45;;;;;;;8.93;6.13;;;;;;;;;;5024305;28;20131;-76
2022/04/23 01:25:13;;;;;;;10.55;6.93;;;;;;;;;;5032000;28;20041;-81
2022/04/23 01:27:40;;;;;;;11.10;7.15;;;;;;;;;;5011580;28;20018;-77
2022/04/23 01:30:07;;;;;;;11.77;6.65;;;;;;;;;;5013585;28;20466;-77
2022/04/23 01:32:33;;;;;;;10.05;7.38;;;;;;;;;;5009989;28;20076;-79
2022/04/23 01:34:59;;;;;;;13.57;7.10;;;;;;;;;;5012912;28;20558;-76
2022/04/23 01:37:25;;;;;;;15.10;7.28;;;;;;;;;;5010892;28;20107;-76
2022/04/23 01:39:51;;;;;;;10.00;7.05;;;;;;;;;;4994540;28;20026;-76
2022/04/23 01:42:19;;;;;;;10.32;6.30;;;;;;;;;;5012681;28;20037;-76
2022/04/23 01:44:45;;;;;;;10.63;6.35;;;;;;;;;;5012390;28;20079;-76
2022/04/23 01:47:11;;;;;;;9.85;5.68;;;;;;;;;;5013886;28;20037;-76
2022/04/23 01:49:38;;;;;;;14.80;6.28;;;;;;;;;;4986314;28;20037;-76
2022/04/23 01:52:04;;;;;;;13.35;7.28;;;;;;;;;;4993890;28;20046;-76
2022/04/23 01:54:32;;;;;;;12.93;6.50;;;;;;;;;;5012152;28;20038;-75
2022/04/23 01:56:58;;;;;;;10.93;6.95;;;;;;;;;;5008514;28;20033;-75
2022/04/23 01:59:24;;;;;;;14.20;6.93;;;;;;;;;;5012975;28;20100;-76
2022/04/23 02:01:51;;;;;;;15.63;6.68;;;;;;;;;;5009595;28;20068;-77
2022/04/23 02:04:17;;;;;;;13.60;6.88;;;;;;;;;;5012190;28;20490;-76
2022/04/23 02:06:43;;;;;;;18.58;7.82;;;;;;;;;;5008222;28;20038;-76
2022/04/23 02:09:09;;;;;;;16.02;6.90;;;;;;;;;;5011720;28;20033;-76
2022/04/23 02:11:35;;;;;;;11.13;7.22;;;;;;;;;;4995857;28;20045;-76
2022/04/23 02:14:04;;;;;;;10.38;6.38;;;;;;;;;;5010675;28;20034;-76
2022/04/23 02:16:30;;;;;;;12.93;7.22;;;;;;;;;;5011142;28;20045;-79
2022/04/23 02:18:57;;;;;;;10.15;7.70;;;;;;;;;;5005930;28;20053;-76
2022/04/23 02:21:24;;;;;;;12.55;7.25;;;;;;;;;;5011611;28;20046;-77
2022/04/23 02:23:50;;;;;;;12.20;8.23;;;;;;;;;;5010373;28;20022;-77
2022/04/23 02:26:16;;;;;;;11.57;7.78;;;;;;;;;;5020939;28;20056;-82
2022/04/23 02:28:42;;;;;;;19.17;7.10;;;;;;;;;;5030875;28;20029;-76
2022/04/23 02:31:09;;;;;;;16.33;8.18;;;;;;;;;;5031202;28;20052;-80
2022/04/23 02:33:35;;;;;;;9.98;6.97;;;;;;;;;;5031574;28;20021;-77
2022/04/23 02:36:01;;;;;;;11.95;7.22;;;;;;;;;;5029916;28;20033;-75
2022/04/23 02:38:28;;;;;;;15.70;8.10;;;;;;;;;;5031585;28;20037;-75
2022/04/23 02:40:54;;;;;;;11.20;7.32;;;;;;;;;;5011810;28;20120;-75
2022/04/23 02:43:21;;;;;;;11.23;7.38;;;;;;;;;;5039262;28;20040;-76
2022/04/23 02:45:48;;;;;;;12.30;7.95;;;;;;;;;;5036882;28;20105;-76
2022/04/23 02:48:14;;;;;;;17.17;8.75;;;;;;;;;;5033104;28;20064;-77
2022/04/23 02:50:40;;;;;;;12.38;8.82;;;;;;;;;;5031577;28;20043;-76
2022/04/23 02:53:07;;;;;;;15.98;8.65;;;;;;;;;;5030255;28;20124;-76
2022/04/23 02:55:33;;;;;;;10.60;7.90;;;;;;;;;;5031552;28;20037;-76
2022/04/23 02:58:10;;;;;;;13.65;7.97;;;;;;;;;;5031316;28;20033;-76
2022/04/23 03:00:38;;;;;;;11.20;7.72;;;;;;;;;;5021749;28;20025;-75
2022/04/23 03:03:05;;;;;;;14.27;9.23;;;;;;;;;;5028354;28;20469;-76
2022/04/23 03:05:31;;;;;;;12.55;8.70;;;;;;;;;;5030506;28;20039;-75
2022/04/23 03:08:00;;;;;;;13.48;8.38;;;;;;;;;;5032859;28;20034;-76
2022/04/23 03:10:27;;;;;;;17.65;9.50;;;;;;;;;;5034167;28;20045;-76
2022/04/23 03:12:55;;;;;;;13.93;8.50;;;;;;;;;;5025126;28;20411;-76
2022/04/23 03:15:22;;;;;;;16.20;9.38;;;;;;;;;;5028120;28;20030;-79
2022/04/23 03:17:48;;;;;;;13.75;9.20;;;;;;;;;;5030585;28;20377;-75
2022/04/23 03:20:15;;;;;;;12.25;9.02;;;;;;;;;;5027342;28;20539;-75
2022/04/23 03:22:41;;;;;;;11.40;8.38;;;;;;;;;;5031528;28;20434;-75
2022/04/23 03:25:08;;;;;;;15.93;8.82;;;;;;;;;;5025057;28;20033;-76
2022/04/23 03:27:35;;;;;;;15.55;9.82;;;;;;;;;;5032155;28;20038;-76
2022/04/23 03:30:01;;;;;;;13.32;9.13;;;;;;;;;;5029422;28;20104;-76
2022/04/23 03:32:28;;;;;;;13.23;9.15;;;;;;;;;;5024527;28;20041;-76
2022/04/23 03:34:54;;;;;;;15.68;8.85;;;;;;;;;;5030243;28;20529;-76
2022/04/23 03:37:21;;;;;;;13.95;9.02;;;;;;;;;;5025796;28;20135;-76
2022/04/23 03:39:48;;;;;;;12.27;9.25;;;;;;;;;;5016511;28;20140;-76
2022/04/23 03:42:15;;;;;;;14.80;9.32;;;;;;;;;;5026635;28;20477;-76
2022/04/23 03:44:41;;;;;;;13.05;9.43;;;;;;;;;;5044868;28;20492;-76
2022/04/23 03:47:07;;;;;;;12.70;9.15;;;;;;;;;;5026993;28;20397;-76
2022/04/23 03:49:33;;;;;;;17.02;9.20;;;;;;;;;;5030991;28;20026;-80
2022/04/23 03:52:00;;;;;;;16.20;9.23;;;;;;;;;;5007120;28;20069;-75
2022/04/23 03:54:26;;;;;;;13.77;8.63;;;;;;;;;;5023085;28;20533;-75
2022/04/23 03:56:54;;;;;;;13.43;8.80;;;;;;;;;;5029667;28;20397;-75
2022/04/23 03:59:23;;;;;;;14.48;9.02;;;;;;;;;;5029964;28;20052;-76
2022/04/23 04:01:53;;;;;;;11.80;8.80;;;;;;;;;;5027681;28;20056;-75
2022/04/23 04:04:19;;;;;;;15.73;9.15;;;;;;;;;;5030333;28;20028;-75
2022/04/23 04:06:45;;;;;;;11.35;8.95;;;;;;;;;;5025071;28;20029;-76
2022/04/23 04:09:12;;;;;;;12.68;8.00;;;;;;;;;;5026553;28;20068;-75
2022/04/23 04:14:23;;;;;;;16.58;9.38;;;;;;;;;;5014257;28;20053;-76
2022/04/23 04:16:50;;;;;;;12.45;7.97;;;;;;;;;;5029216;28;20049;-75
2022/04/23 04:19:16;;;;;;;12.30;8.45;;;;;;;;;;5019532;28;20030;-76
2022/04/23 04:21:43;;;;;;;14.00;8.73;;;;;;;;;;5028352;28;20037;-75
2022/04/23 04:24:12;;;;;;;13.13;8.40;;;;;;;;;;5019648;28;20522;-75
2022/04/23 04:26:39;;;;;;;16.65;9.45;;;;;;;;;;5015458;28;20529;-75
2022/04/23 04:29:05;;;;;;;13.52;8.50;;;;;;;;;;5025096;28;20108;-80
2022/04/23 04:31:49;;;;;;;13.40;8.50;;;;;;;;;;5032392;28;20084;-75
2022/04/23 04:34:23;;;;;;;12.30;8.50;;;;;;;;;;5000498;28;20379;-80
2022/04/23 04:36:50;;;;;;;16.75;9.02;;;;;;;;;;5016645;28;20026;-76
2022/04/23 04:39:17;;;;;;;11.00;8.45;;;;;;;;;;5033943;28;20804;-75
2022/04/23 04:41:43;;;;;;;13.68;7.57;;;;;;;;;;5014025;28;20052;-75
2022/04/23 04:44:09;;;;;;;10.48;8.18;;;;;;;;;;5034606;28;20029;-75
2022/04/23 04:46:36;;;;;;;13.75;7.93;;;;;;;;;;5033429;28;20036;-75
2022/04/23 04:49:03;;;;;;;16.17;9.18;;;;;;;;;;5032500;28;20061;-75
2022/04/23 04:51:29;;;;;;;10.75;8.25;;;;;;;;;;5033870;28;20038;-75
2022/04/23 04:53:56;;;;;;;12.77;8.85;;;;;;;;;;5041080;28;20032;-74
2022/04/23 04:56:22;;;;;;;11.55;8.63;;;;;;;;;;5030747;28;20398;-75
2022/04/23 04:58:48;;;;;;;15.02;8.70;;;;;;;;;;5029532;28;20574;-74
2022/04/23 05:01:15;;;;;;;9.82;8.18;;;;;;;;;;5032391;28;20063;-75
2022/04/23 05:03:41;;;;;;;9.68;8.40;;;;;;;;;;5031918;28;20551;-75
2022/04/23 05:06:07;;;;;;;11.55;7.53;;;;;;;;;;5030636;28;20030;-80
2022/04/23 05:08:37;;;;;;;11.30;7.75;;;;;;;;;;5023573;28;20428;-74
2022/04/23 05:11:03;;;;;;;12.52;8.30;;;;;;;;;;5033449;28;20075;-75
2022/04/23 05:13:30;;;;;;;10.65;8.20;;;;;;;;;;5033138;28;20104;-75
2022/04/23 05:15:56;;;;;;;13.57;7.70;;;;;;;;;;5014516;28;20029;-75
2022/04/23 05:18:23;;;;;;;10.10;8.13;;;;;;;;;;5032735;28;20116;-75
2022/04/23 05:20:49;;;;;;;12.73;8.10;;;;;;;;;;5031997;28;20042;-77
2022/04/23 05:23:15;;;;;;;9.40;8.23;;;;;;;;;;5027035;28;20052;-78
2022/04/23 05:25:41;;;;;;;10.82;8.43;;;;;;;;;;5023839;28;20042;-76
2022/04/23 05:28:07;;;;;;;9.18;7.72;;;;;;;;;;5012349;28;20377;-75
2022/04/23 05:30:37;;;;;;;12.77;8.18;;;;;;;;;;5011399;28;20022;-75
2022/04/23 05:33:03;;;;;;;17.13;13.60;;;;;;;;;;4987740;28;20883;-74
2022/04/23 05:35:29;;;;;;;12.63;9.40;;;;;;;;;;5003393;28;20493;-73
2022/04/23 05:37:55;;;;;;;8.98;8.05;;;;;;;;;;5003945;28;20030;-72
2022/04/23 05:40:22;;;;;;;12.25;8.80;;;;;;;;;;4999895;28;20037;-76
2022/04/23 05:42:48;;;;;;;10.23;7.25;;;;;;;;;;5011722;28;20044;-75
2022/04/23 05:45:14;;;;;;;9.88;7.07;;;;;;;;;;5011578;28;20049;-75
2022/04/23 05:47:43;;;;;;;13.25;7.90;;;;;;;;;;5026585;28;20037;-77
2022/04/23 05:50:10;;;;;;;10.25;7.43;;;;;;;;;;5014819;28;20049;-76
2022/04/23 05:52:37;;;;;;;12.80;8.30;;;;;;;;;;4994112;28;20042;-75
2022/04/23 05:55:04;;;;;;;9.77;7.70;;;;;;;;;;5012430;28;20034;-75
2022/04/23 05:57:31;;;;;;;10.70;7.13;;;;;;;;;;4994885;28;20092;-75
2022/04/23 05:59:57;;;;;;;10.57;7.57;;;;;;;;;;5013066;28;20085;-75
2022/04/23 06:02:24;;;;;;;10.05;8.52;;;;;;;;;;4988906;28;20047;-77
2022/04/23 06:04:50;;;;;;;9.30;7.32;;;;;;;;;;5011672;28;20092;-79
2022/04/23 06:07:16;;;;;;;12.45;7.80;;;;;;;;;;5012021;28;20065;-75
2022/04/23 06:09:43;;;;;;;13.98;7.20;;;;;;;;;;5010413;28;20033;-74
2022/04/23 06:12:09;;;;;;;10.43;8.00;;;;;;;;;;5008185;28;20530;-76
2022/04/23 06:14:35;;;;;;;13.40;9.70;;;;;;;;;;5006078;28;20030;-76
2022/04/23 06:17:01;;;;;;;10.88;8.45;;;;;;;;;;5010517;28;20029;-79
2022/04/23 06:19:31;;;;;;;9.63;7.90;;;;;;;;;;4992789;28;20038;-76
2022/04/23 06:21:59;;;;;;;8.75;6.85;;;;;;;;;;5003814;28;20378;-75
2022/04/23 06:24:25;;;;;;;8.55;6.55;;;;;;;;;;5016243;28;20038;-80
2022/04/23 06:26:51;;;;;;;9.63;7.90;;;;;;;;;;5027002;28;20100;-76
2022/04/23 06:29:17;;;;;;;8.50;7.00;;;;;;;;;;5030885;28;20029;-75
2022/04/23 06:31:44;;;;;;;10.57;7.10;;;;;;;;;;5035832;28;20044;-75
2022/04/23 06:34:10;;;;;;;7.65;6.80;;;;;;;;;;5024872;28;20022;-74
2022/04/23 06:36:36;;;;;;;9.88;6.95;;;;;;;;;;5032629;28;20025;-75
2022/04/23 06:39:03;;;;;;;9.43;7.20;;;;;;;;;;5040917;28;20102;-75
2022/04/23 06:41:29;;;;;;;9.02;6.75;;;;;;;;;;5003587;28;20033;-76
2022/04/23 06:43:55;;;;;;;8.45;6.32;;;;;;;;;;5012187;28;20030;-76
2022/04/23 06:46:21;;;;;;;9.38;7.35;;;;;;;;;;5038038;28;20040;-76
2022/04/23 06:48:47;;;;;;;15.88;6.70;;;;;;;;;;5017515;28;20044;-76
2022/04/23 06:51:13;;;;;;;8.55;5.97;;;;;;;;;;5033017;28;20033;-77
2022/04/23 06:53:39;;;;;;;8.18;6.45;;;;;;;;;;5029504;28;20069;-76
2022/04/23 06:56:05;;;;;;;8.40;6.90;;;;;;;;;;5030794;28;20034;-76
2022/04/23 06:58:31;;;;;;;8.48;6.90;;;;;;;;;;5033221;28;20033;-76
2022/04/23 07:00:58;;;;;;;15.80;9.93;;;;;;;;;;5025132;28;20048;-76
2022/04/23 07:03:24;;;;;;;11.10;8.15;;;;;;;;;;5006747;28;20065;-76
2022/04/23 07:05:51;;;;;;;9.05;7.50;;;;;;;;;;5029974;28;20394;-77
2022/04/23 07:08:17;;;;;;;11.48;6.80;;;;;;;;;;5008980;28;20044;-75
2022/04/23 07:10:46;;;;;;;8.98;7.18;;;;;;;;;;5025145;28;20192;-76
2022/04/23 07:13:13;;;;;;;8.23;6.75;;;;;;;;;;5030080;28;20093;-78
2022/04/23 07:15:39;;;;;;;11.90;6.70;;;;;;;;;;5014328;28;20037;-76
2022/04/23 07:18:07;;;;;;;8.95;7.15;;;;;;;;;;5027759;28;20424;-76
2022/04/23 07:20:33;;;;;;;8.55;6.78;;;;;;;;;;5027186;28;20386;-76
2022/04/23 07:25:58;;;;;;;10.85;7.28;;;;;;;;;;4996699;28;20501;-76
2022/04/23 07:28:25;;;;;;;8.27;7.05;;;;;;;;;;5006933;28;20080;-76
2022/04/23 07:30:52;;;;;;;8.80;7.35;;;;;;;;;;5005372;28;20439;-75
2022/04/23 07:38:47;;;;;;;17.77;12.85;;;;;;;;;;5014282;28;20045;-81
2022/04/23 07:41:13;;;;;;;8.15;6.88;;;;;;;;;;5011886;28;20030;-78
2022/04/23 07:43:40;;;;;;;11.68;6.93;;;;;;;;;;5009807;28;20033;-77
2022/04/23 07:46:06;;;;;;;13.43;6.97;;;;;;;;;;5011057;28;20045;-80
2022/04/23 07:48:33;;;;;;;8.32;7.43;;;;;;;;;;5007244;28;20121;-79
2022/04/23 07:50:59;;;;;;;8.63;6.82;;;;;;;;;;5011889;28;20026;-78
2022/04/23 07:53:25;;;;;;;9.35;6.97;;;;;;;;;;5008481;28;20025;-80
2022/04/23 07:55:51;;;;;;;8.70;7.15;;;;;;;;;;5001619;28;20029;-78
2022/04/23 07:58:17;;;;;;;9.52;6.78;;;;;;;;;;4999938;28;20045;-77
2022/04/23 08:00:45;;;;;;;8.90;7.03;;;;;;;;;;5010567;28;20124;-78
2022/04/23 08:03:11;;;;;;;8.43;6.93;;;;;;;;;;5009105;28;20034;-78
2022/04/23 08:05:37;;;;;;;8.73;6.78;;;;;;;;;;4996195;28;20085;-84
2022/04/23 08:08:03;;;;;;;9.82;6.93;;;;;;;;;;5014652;28;20038;-79
2022/04/23 08:10:29;;;;;;;7.80;6.57;;;;;;;;;;5009655;28;20026;-77
2022/04/23 08:12:56;;;;;;;8.60;5.97;;;;;;;;;;5013758;28;20068;-78
2022/04/23 08:15:22;;;;;;;10.80;5.95;;;;;;;;;;5018842;28;20176;-78
2022/04/23 08:17:48;;;;;;;7.65;6.20;;;;;;;;;;4985484;28;20030;-78
2022/04/23 08:20:14;;;;;;;10.23;6.53;;;;;;;;;;5006852;28;20397;-77
2022/04/23 08:22:41;;;;;;;7.30;5.80;;;;;;;;;;5004082;28;20030;-78
2022/04/23 08:25:07;;;;;;;8.82;5.60;;;;;;;;;;5010956;28;20041;-77
2022/04/23 08:27:50;;;;;;;13.45;9.57;;;;;;;;;;5023353;28;20746;-82
2022/04/23 08:30:34;;;;;;;10.75;8.43;;;;;;;;;;5035120;28;20052;-80
2022/04/23 08:33:03;;;;;;;6.85;5.93;;;;;;;;;;5027742;28;20037;-81
2022/04/23 08:35:29;;;;;;;9.63;6.03;;;;;;;;;;5028060;28;20026;-78
2022/04/23 08:37:55;;;;;;;8.15;6.20;;;;;;;;;;5024500;28;20029;-78
2022/04/23 08:40:22;;;;;;;7.50;6.65;;;;;;;;;;5033486;28;20029;-78
2022/04/23 08:42:48;;;;;;;12.40;5.90;;;;;;;;;;5041600;28;20033;-78
2022/04/23 08:45:14;;;;;;;7.00;6.30;;;;;;;;;;5035614;28;20426;-77
2022/04/23 08:47:45;;;;;;;15.38;6.25;;;;;;;;;;5011209;28;20537;-78
2022/04/23 08:50:12;;;;;;;9.38;6.15;;;;;;;;;;5036227;28;20027;-79
2022/04/23 08:52:41;;;;;;;13.73;6.25;;;;;;;;;;5034894;28;20048;-78
2022/04/23 08:55:07;;;;;;;10.10;5.88;;;;;;;;;;5031904;28;20041;-79
2022/04/23 08:57:34;;;;;;;8.60;5.35;;;;;;;;;;5017744;28;20034;-78
2022/04/23 09:00:01;;;;;;;11.20;5.90;;;;;;;;;;5033071;28;20036;-79
2022/04/23 09:02:28;;;;;;;8.85;6.28;;;;;;;;;;5016334;28;20051;-79
2022/04/23 09:04:55;;;;;;;11.73;5.35;;;;;;;;;;5025508;28;20076;-78
2022/04/23 09:07:22;;;;;;;9.13;6.05;;;;;;;;;;5015173;28;20031;-79
2022/04/23 09:09:49;;;;;;;8.02;5.82;;;;;;;;;;5031854;28;20079;-83
2022/04/23 09:12:17;;;;;;;14.73;6.15;;;;;;;;;;5028239;28;20473;-80
2022/04/23 09:14:45;;;;;;;10.13;5.25;;;;;;;;;;5036412;28;20029;-80
2022/04/23 09:25:35;;;;;;;7.80;5.40;;;;;;;;;;5032730;28;20064;-78
2022/04/23 09:28:19;;;;;;;8.20;5.47;;;;;;;;;;5023942;28;20523;-78
2022/04/23 09:30:46;;;;;;;11.10;5.80;;;;;;;;;;5031980;28;20056;-78
2022/04/23 09:33:13;;;;;;;10.88;5.40;;;;;;;;;;5024868;28;20043;-76
2022/04/23 09:35:58;;;;;;;8.80;5.60;;;;;;;;;;5038029;28;20029;-79
2022/04/23 09:38:25;;;;;;;11.75;6.50;;;;;;;;;;5038480;28;20576;-79
2022/04/23 09:40:52;;;;;;;8.32;5.80;;;;;;;;;;5037947;28;20145;-80
2022/04/23 09:43:25;;;;;;;7.30;5.60;;;;;;;;;;5034921;28;20083;-79
2022/04/23 09:46:00;;;;;;;8.80;5.78;;;;;;;;;;5037992;28;20095;-79
2022/04/23 09:48:26;;;;;;;12.65;6.13;;;;;;;;;;5033489;28;20462;-78
2022/04/23 09:50:52;;;;;;;10.35;5.35;;;;;;;;;;5025542;28;20089;-78
2022/04/23 09:53:21;;;;;;;8.00;6.20;;;;;;;;;;5027013;28;20038;-78
2022/04/23 09:55:49;;;;;;;11.40;8.45;;;;;;;;;;5038205;28;20041;-83
2022/04/23 09:58:19;;;;;;;12.13;6.55;;;;;;;;;;5051488;28;20036;-83
2022/04/23 10:00:47;;;;;;;7.65;5.72;;;;;;;;;;5035430;28;20060;-77
2022/04/23 10:03:13;;;;;;;8.13;6.15;;;;;;;;;;5033801;28;20045;-81
2022/04/23 10:05:42;;;;;;;10.35;5.55;;;;;;;;;;5027802;28;20538;-80
2022/04/23 10:08:12;;;;;;;9.15;5.45;;;;;;;;;;5038700;28;20029;-80
2022/04/23 10:10:43;;;;;;;12.32;5.47;;;;;;;;;;5035328;28;20029;-79
2022/04/23 10:13:10;;;;;;;10.38;5.70;;;;;;;;;;5047067;28;20033;-80
2022/04/23 10:15:37;;;;;;;7.45;5.80;;;;;;;;;;5033322;28;20567;-80
2022/04/23 10:18:05;;;;;;;7.97;5.53;;;;;;;;;;5034805;28;20057;-81
2022/04/23 10:20:31;;;;;;;8.10;5.68;;;;;;;;;;5042957;28;20026;-84
2022/04/23 10:23:04;;;;;;;8.38;5.60;;;;;;;;;;5020432;28;20795;-83
2022/04/23 10:25:40;;;;;;;9.00;5.30;;;;;;;;;;5036462;28;20054;-84
2022/04/23 10:28:08;;;;;;;7.30;5.43;;;;;;;;;;5037689;28;20033;-82
2022/04/23 10:30:34;;;;;;;6.38;5.78;;;;;;;;;;5034647;28;20049;-83
2022/04/23 10:33:20;;;;;;;8.48;5.00;;;;;;;;;;5038527;28;20041;-83
2022/04/23 10:36:01;;;;;;;9.65;6.30;;;;;;;;;;5048942;28;20084;-82
2022/04/23 10:38:28;;;;;;;12.85;6.07;;;;;;;;;;5053896;28;20021;-83
2022/04/23 10:40:55;;;;;;;7.28;5.40;;;;;;;;;;5039280;28;20037;-82
2022/04/23 10:43:21;;;;;;;11.48;6.03;;;;;;;;;;5041601;28;20038;-82
2022/04/23 10:45:48;;;;;;;9.32;5.70;;;;;;;;;;5040850;28;20425;-83
2022/04/23 10:48:35;;;;;;;11.20;5.45;;;;;;;;;;5033375;28;20040;-82
2022/04/23 10:51:08;;;;;;;7.45;5.10;;;;;;;;;;5019082;28;20025;-83
2022/04/23 10:53:37;;;;;;;11.80;5.45;;;;;;;;;;5042835;28;20041;-82
2022/04/23 10:56:07;;;;;;;6.30;5.43;;;;;;;;;;5034894;28;20021;-82
2022/04/23 10:58:33;;;;;;;10.63;5.78;;;;;;;;;;5032302;28;20055;-82
2022/04/23 11:01:20;;;;;;;9.73;5.50;;;;;;;;;;5023201;28;20041;-82
2022/04/23 11:04:07;;;;;;;7.63;5.53;;;;;;;;;;5040835;28;20077;-82
2022/04/23 11:12:20;;;;;;;9.02;6.65;;;;;;;;;;5041293;28;20040;-82
2022/04/23 11:14:48;;;;;;;9.15;5.50;;;;;;;;;;5041292;28;20529;-83
2022/04/23 11:17:44;;;;;;;6.82;5.28;;;;;;;;;;5033234;28;20033;-83
2022/04/23 11:20:14;;;;;;;9.18;5.18;;;;;;;;;;5009049;28;20053;-83
2022/04/23 11:22:40;;;;;;;9.63;4.93;;;;;;;;;;5023614;28;20500;-83
2022/04/23 11:25:06;;;;;;;9.68;5.82;;;;;;;;;;5019283;28;20033;-83
2022/04/23 11:27:38;;;;;;;9.68;5.20;;;;;;;;;;5002168;28;20033;-83
2022/04/23 11:30:07;;;;;;;6.33;5.20;;;;;;;;;;4993948;28;20026;-83
2022/04/23 11:32:34;;;;;;;8.75;5.05;;;;;;;;;;5018350;28;20552;-83
2022/04/23 11:35:08;;;;;;;5.75;4.88;;;;;;;;;;5024214;28;20090;-83
2022/04/23 11:37:34;;;;;;;9.02;5.32;;;;;;;;;;5002528;28;20033;-82
2022/04/23 11:40:10;;;;;;;10.93;5.22;;;;;;;;;;5013614;28;20025;-82
2022/04/23 11:42:43;;;;;;;8.93;5.82;;;;;;;;;;5024273;28;20049;-82
2022/04/23 11:45:11;;;;;;;6.20;5.00;;;;;;;;;;5040040;28;20033;-82
2022/04/23 11:47:37;;;;;;;7.68;5.88;;;;;;;;;;5014797;28;20006;-82
2022/04/23 11:50:16;;;;;;;5.60;5.10;;;;;;;;;;5020928;28;20033;-82
2022/04/23 11:52:43;;;;;;;12.45;6.28;;;;;;;;;;5027751;28;20022;-82
2022/04/23 11:55:20;;;;;;;6.90;4.68;;;;;;;;;;5033511;28;20100;-82
2022/04/23 11:57:56;;;;;;;6.88;5.22;;;;;;;;;;5001404;28;20026;-82
2022/04/23 12:00:22;;;;;;;7.38;5.30;;;;;;;;;;4997443;28;20084;-82
2022/04/23 12:02:48;;;;;;;8.45;5.85;;;;;;;;;;5016618;28;20464;-82
2022/04/23 12:05:22;;;;;;;7.13;4.93;;;;;;;;;;5018401;28;20029;-81
2022/04/23 12:07:48;;;;;;;5.97;5.05;;;;;;;;;;5022193;28;20478;-82
2022/04/23 12:10:15;;;;;;;5.53;4.38;;;;;;;;;;5017319;28;20029;-81
2022/04/23 12:12:42;;;;;;;5.97;4.80;;;;;;;;;;5018060;28;20029;-82
2022/04/23 12:15:11;;;;;;;7.03;4.68;;;;;;;;;;5004281;28;20521;-81
2022/04/23 12:17:54;;;;;;;5.53;4.45;;;;;;;;;;4991905;28;20475;-85
2022/04/23 12:20:21;;;;;;;5.30;4.03;;;;;;;;;;5009567;28;20386;-78
2022/04/23 12:23:01;;;;;;;5.40;4.15;;;;;;;;;;5018140;28;20030;-83
2022/04/23 12:25:27;;;;;;;6.90;4.80;;;;;;;;;;4992641;28;20528;-83
2022/04/23 12:27:58;;;;;;;5.20;4.18;;;;;;;;;;4981633;28;20054;-82
2022/04/23 12:41:38;;;;;;;6.40;4.90;;;;;;;;;;5029232;28;20432;-81
2022/04/23 12:44:16;;;;;;;11.38;6.00;;;;;;;;;;5024172;28;20113;-80
2022/04/23 12:46:52;;;;;;;13.65;7.50;;;;;;;;;;5008816;28;20045;-81
2022/04/23 12:49:18;;;;;;;5.63;4.82;;;;;;;;;;5038227;28;20709;-84
2022/04/23 12:51:51;;;;;;;8.02;4.88;;;;;;;;;;5024367;28;20053;-79
2022/04/23 12:54:17;;;;;;;5.65;4.28;;;;;;;;;;5031703;28;20484;-75
2022/04/23 12:56:43;;;;;;;5.80;4.55;;;;;;;;;;5030588;28;20063;-77
2022/04/23 12:59:09;;;;;;;6.47;4.78;;;;;;;;;;5032721;28;20076;-77
2022/04/23 13:01:37;;;;;;;6.18;4.50;;;;;;;;;;5032329;28;20386;-78
2022/04/23 13:04:06;;;;;;;5.68;3.80;;;;;;;;;;5034210;28;20137;-77
2022/04/23 13:09:16;;;;;;;6.50;5.10;;;;;;;;;;5033271;28;20037;-75
2022/04/23 13:11:42;;;;;;;15.32;6.90;;;;;;;;;;5022126;28;20500;-76
2022/04/23 13:14:08;;;;;;;5.38;3.78;;;;;;;;;;5020453;28;20397;-79
2022/04/23 13:16:36;;;;;;;4.30;3.90;;;;;;;;;;5032541;28;20485;-76
2022/04/23 13:19:03;;;;;;;7.78;4.38;;;;;;;;;;5014173;28;20424;-77
2022/04/23 13:21:31;;;;;;;4.95;4.35;;;;;;;;;;5032238;28;20030;-77
2022/04/23 13:23:57;;;;;;;7.63;4.90;;;;;;;;;;5018712;28;20045;-77
2022/04/23 13:26:24;;;;;;;4.00;3.60;;;;;;;;;;5023417;28;20408;-77
2022/04/23 13:28:50;;;;;;;8.35;4.70;;;;;;;;;;5032336;28;20064;-77
2022/04/23 13:31:16;;;;;;;5.13;3.67;;;;;;;;;;5013758;28;20051;-77
2022/04/23 13:33:43;;;;;;;12.45;4.30;;;;;;;;;;5035672;28;20099;-76
2022/04/23 13:36:10;;;;;;;5.45;3.83;;;;;;;;;;5027197;28;20050;-77
2022/04/23 13:38:36;;;;;;;4.43;3.55;;;;;;;;;;5012937;28;20030;-77
2022/04/23 13:41:03;;;;;;;6.18;3.58;;;;;;;;;;5032748;28;20018;-79
2022/04/23 13:43:29;;;;;;;4.97;3.85;;;;;;;;;;5021069;28;20042;-78
2022/04/23 13:45:55;;;;;;;6.55;3.80;;;;;;;;;;5029592;28;20034;-79
2022/04/23 13:48:21;;;;;;;8.07;4.03;;;;;;;;;;5040109;28;20048;-79
2022/04/23 13:50:47;;;;;;;4.10;3.47;;;;;;;;;;5018692;28;20038;-79
2022/04/23 13:53:13;;;;;;;8.55;3.80;;;;;;;;;;5014874;28;20029;-79
2022/04/23 13:55:39;;;;;;;4.45;3.63;;;;;;;;;;5031956;28;20060;-79
2022/04/23 13:58:06;;;;;;;6.07;3.70;;;;;;;;;;5017720;28;20021;-78
2022/04/23 14:00:32;;;;;;;4.95;3.70;;;;;;;;;;5033459;28;20091;-79
2022/04/23 14:11:11;;;;;;;9.77;4.10;;;;;;;;;;5031729;28;20091;-76
2022/04/23 14:13:38;;;;;;;7.38;3.47;;;;;;;;;;5031440;28;20087;-78
2022/04/23 14:16:04;;;;;;;6.82;3.78;;;;;;;;;;5030934;28;20385;-79
2022/04/23 14:18:30;;;;;;;4.90;3.20;;;;;;;;;;5027773;28;20042;-79
2022/04/23 14:20:56;;;;;;;5.68;3.80;;;;;;;;;;5028634;28;20033;-78
2022/04/23 14:23:23;;;;;;;6.93;3.47;;;;;;;;;;5031978;28;20064;-78
2022/04/23 14:25:50;;;;;;;8.30;3.70;;;;;;;;;;5033197;28;20064;-78
2022/04/23 14:28:16;;;;;;;5.28;3.17;;;;;;;;;;5027710;28;20445;-79
2022/04/23 14:30:43;;;;;;;6.68;3.60;;;;;;;;;;5016052;28;20038;-79
2022/04/23 14:33:09;;;;;;;10.02;3.40;;;;;;;;;;5011097;28;20034;-79
2022/04/23 14:35:37;;;;;;;11.55;3.13;;;;;;;;;;5028998;28;20067;-79
2022/04/23 14:38:03;;;;;;;9.27;5.78;;;;;;;;;;5029521;28;20121;-79
2022/04/23 14:40:30;;;;;;;5.60;3.10;;;;;;;;;;5027372;28;20029;-80
2022/04/23 14:42:57;;;;;;;10.77;3.53;;;;;;;;;;5028209;28;20034;-78
2022/04/23 14:45:24;;;;;;;7.15;3.97;;;;;;;;;;5023694;28;20034;-79
2022/04/23 14:47:52;;;;;;;6.40;2.78;;;;;;;;;;5029186;28;20029;-79
2022/04/23 14:50:18;;;;;;;6.07;3.00;;;;;;;;;;4995989;28;20038;-77
2022/04/23 14:55:29;;;;;;;6.40;3.05;;;;;;;;;;5029503;28;20136;-78
2022/04/23 14:57:55;;;;;;;10.70;2.95;;;;;;;;;;5013709;28;20033;-80
2022/04/23 15:00:22;;;;;;;2.92;2.60;;;;;;;;;;5034032;28;20033;-79
2022/04/23 15:02:48;;;;;;;9.00;2.53;;;;;;;;;;5032662;28;20033;-79
2022/04/23 15:05:15;;;;;;;10.10;2.72;;;;;;;;;;5026787;28;20041;-79
2022/04/23 15:07:41;;;;;;;6.35;2.60;;;;;;;;;;5017767;28;20495;-79
2022/04/23 15:10:07;;;;;;;5.28;2.83;;;;;;;;;;5034819;28;20521;-79
2022/04/23 15:12:33;;;;;;;10.35;2.80;;;;;;;;;;5029797;28;20041;-78
2022/04/23 15:15:00;;;;;;;9.75;2.72;;;;;;;;;;5008790;28;20053;-80
2022/04/23 15:17:30;;;;;;;4.47;2.45;;;;;;;;;;5026859;28;20038;-78
2022/04/23 15:19:56;;;;;;;9.63;6.22;;;;;;;;;;5019048;28;20417;-82
2022/04/23 15:22:22;;;;;;;4.10;3.38;;;;;;;;;;5032356;28;20033;-77
2022/04/23 15:24:48;;;;;;;7.28;3.17;;;;;;;;;;5021023;28;20076;-79
2022/04/23 15:27:16;;;;;;;4.28;2.55;;;;;;;;;;5004531;28;20077;-79
2022/04/23 15:29:42;;;;;;;5.47;2.80;;;;;;;;;;4983136;28;20478;-78